logo
Rechercher aéroport 
image banner adimage banner adimage banner ad
image banner ad

CN55 - Mercy Hospital Southwest

Situé à Bakersfield, United States

ICAO - CN55, IATA -

Données fournies par Airmate  

Information générale

Coordonnées: N35°21'0" W119°6'44"
Élévation : 375 feet MSL.
 
Voir autres Aéroports à California

Données opérationnelles

Special qualification required
Heure actuelle UTC:
Heure actuelle locale:
Météo à : KBFL - Meadows Field ( 11 km )
METAR: KBFL 261454Z 13005KT 7SM CLR 20/13 A2995 RMK AO2 SLP135 T02000128 53013
TAF: KBFL 261120Z 2612/2712 00000KT P6SM SKC FM262300 VRB06KT P6SM FEW250
Voir NOTAMs / SUP AIP / TFR affectant cet aéroport [VIEW]
Fréquences de communication: [VIEW]

Pistes:

Coordonnées de l'aéroport

Adresse: Bakersfield United States

Vue satellite de CN55